createdAt,value
2023-11-15T00:00:10.364Z,95.64
2023-11-15T00:02:39.705Z,95.51
2023-11-15T00:05:10.377Z,94.82
2023-11-15T00:07:38.812Z,94.80
2023-11-15T00:10:08.209Z,94.66
2023-11-15T00:12:36.666Z,94.25
2023-11-15T00:15:05.778Z,94.63
2023-11-15T00:17:34.288Z,95.03
2023-11-15T00:20:05.106Z,95.02
2023-11-15T00:22:34.939Z,94.98
2023-11-15T00:25:03.260Z,94.67
2023-11-15T00:27:32.744Z,95.33
2023-11-15T00:30:02.074Z,94.85
2023-11-15T00:32:30.781Z,94.47
2023-11-15T00:34:59.140Z,94.73
2023-11-15T00:37:28.035Z,95.03
2023-11-15T00:39:59.511Z,94.85
2023-11-15T00:42:27.948Z,95.27
2023-11-15T00:44:56.418Z,95.24
2023-11-15T00:47:24.907Z,94.71
2023-11-15T00:49:53.320Z,95.36
2023-11-15T00:52:21.652Z,95.98
2023-11-15T00:54:49.915Z,96.50
2023-11-15T00:57:19.682Z,96.42
2023-11-15T00:59:54.273Z,95.45
2023-11-15T01:02:22.954Z,95.24
2023-11-15T01:04:52.214Z,95.57
2023-11-15T01:07:20.812Z,95.56
2023-11-15T01:09:49.488Z,95.83
2023-11-15T01:12:19.659Z,95.81
2023-11-15T01:14:48.202Z,95.21
2023-11-15T01:17:16.682Z,94.16
2023-11-15T01:19:46.180Z,93.76
2023-11-15T01:22:14.672Z,94.31
2023-11-15T01:24:43.197Z,94.81
2023-11-15T01:27:12.432Z,94.25
2023-11-15T01:29:42.096Z,93.65
2023-11-15T01:32:10.491Z,92.59
2023-11-15T01:34:38.943Z,92.97
2023-11-15T01:37:07.336Z,93.23
2023-11-15T01:39:35.713Z,93.27
2023-11-15T01:42:04.572Z,93.69
2023-11-15T01:44:35.310Z,93.42
2023-11-15T01:47:05.988Z,93.64
2023-11-15T01:49:34.553Z,93.97
2023-11-15T01:52:02.939Z,93.95
2023-11-15T01:54:32.002Z,93.38
2023-11-15T01:57:00.470Z,92.52
2023-11-15T01:59:29.290Z,92.29
2023-11-15T02:01:57.653Z,92.96
2023-11-15T02:04:27.766Z,92.88
2023-11-15T02:06:57.026Z,92.55
2023-11-15T02:09:26.094Z,92.71
2023-11-15T02:11:54.902Z,92.12
2023-11-15T02:14:23.565Z,92.40
2023-11-15T02:16:53.229Z,92.31
2023-11-15T02:19:21.882Z,91.83
2023-11-15T02:21:53.365Z,92.07
2023-11-15T02:24:23.195Z,91.83
2023-11-15T02:26:51.824Z,92.23
2023-11-15T02:29:20.231Z,91.95
2023-11-15T02:31:48.594Z,91.54
2023-11-15T02:34:17.043Z,91.75
2023-11-15T02:36:45.358Z,91.68
2023-11-15T02:39:14.125Z,92.35
2023-11-15T02:41:44.044Z,91.23
2023-11-15T02:44:12.427Z,90.48
2023-11-15T02:46:40.873Z,89.91
2023-11-15T02:49:09.323Z,89.18
2023-11-15T02:51:37.825Z,89.04
2023-11-15T02:54:06.456Z,89.36
2023-11-15T02:56:34.798Z,89.99
2023-11-15T02:59:04.621Z,90.04
2023-11-15T03:01:33.181Z,89.45
2023-11-15T03:04:01.595Z,89.66
2023-11-15T03:06:31.959Z,89.65
2023-11-15T03:09:00.329Z,89.34
2023-11-15T03:11:28.865Z,89.81
2023-11-15T03:13:57.991Z,90.51
2023-11-15T03:16:27.883Z,90.14
2023-11-15T03:18:56.375Z,89.92
2023-11-15T03:21:24.798Z,90.62
2023-11-15T03:23:53.290Z,90.43
2023-11-15T03:26:21.793Z,90.26
2023-11-15T03:28:50.264Z,90.89
2023-11-15T03:31:18.750Z,90.90
2023-11-15T03:33:49.419Z,90.96
2023-11-15T03:36:18.002Z,91.81
2023-11-15T03:38:46.522Z,91.76
2023-11-15T03:41:15.156Z,91.74
2023-11-15T03:43:43.759Z,91.67
2023-11-15T03:46:12.309Z,91.48
2023-11-15T03:48:40.911Z,91.87
2023-11-15T03:51:10.714Z,91.81
2023-11-15T03:53:39.792Z,90.91
2023-11-15T03:56:11.173Z,91.33
2023-11-15T03:58:39.653Z,91.55
2023-11-15T04:01:09.228Z,92.03
2023-11-15T04:03:37.874Z,92.32
2023-11-15T04:06:09.111Z,91.20
2023-11-15T04:08:38.980Z,91.56
2023-11-15T04:11:07.656Z,92.67
2023-11-15T04:13:37.374Z,94.58
2023-11-15T04:16:07.325Z,94.99
2023-11-15T04:18:36.928Z,95.18
2023-11-15T04:21:06.271Z,96.14
2023-11-15T04:23:34.725Z,95.43
2023-11-15T04:26:04.976Z,95.61
2023-11-15T04:28:34.653Z,95.07
2023-11-15T04:31:03.991Z,94.38
2023-11-15T04:33:32.483Z,94.25
2023-11-15T04:36:01.069Z,95.14
2023-11-15T04:38:29.562Z,94.86
2023-11-15T04:40:58.073Z,94.51
2023-11-15T04:43:27.843Z,94.37
2023-11-15T04:45:56.300Z,94.17
2023-11-15T04:48:24.778Z,94.65
2023-11-15T04:50:53.202Z,94.50
2023-11-15T04:53:21.597Z,94.20
2023-11-15T04:55:49.962Z,94.16
2023-11-15T04:58:18.272Z,94.53
2023-11-15T05:00:48.071Z,95.14
2023-11-15T05:03:16.526Z,94.99
2023-11-15T05:05:47.258Z,94.17
2023-11-15T05:08:15.781Z,94.50
2023-11-15T05:10:44.158Z,93.63
2023-11-15T05:13:12.704Z,93.81
2023-11-15T05:15:41.777Z,93.57
2023-11-15T05:18:11.615Z,93.52
2023-11-15T05:20:40.010Z,93.23
2023-11-15T05:23:08.446Z,93.35
2023-11-15T05:25:37.228Z,92.98
2023-11-15T05:28:06.770Z,92.42
2023-11-15T05:30:35.260Z,92.57
2023-11-15T05:33:03.752Z,92.95
2023-11-15T05:35:33.576Z,93.23
2023-11-15T05:38:02.126Z,92.88
2023-11-15T05:40:30.600Z,93.12
2023-11-15T05:42:58.963Z,93.13
2023-11-15T05:45:27.487Z,92.33
2023-11-15T05:47:55.933Z,92.68
2023-11-15T05:50:24.354Z,93.79
2023-11-15T05:52:54.677Z,94.23
2023-11-15T05:55:23.097Z,94.24
2023-11-15T05:57:51.542Z,93.58
2023-11-15T06:00:21.506Z,93.62
2023-11-15T06:02:51.208Z,94.79
2023-11-15T06:05:21.370Z,93.90
2023-11-15T06:07:49.760Z,94.13
2023-11-15T06:10:19.856Z,94.43
2023-11-15T06:12:48.296Z,93.70
2023-11-15T06:15:16.938Z,92.88
2023-11-15T06:17:45.505Z,92.80
2023-11-15T06:20:14.933Z,91.77
2023-11-15T06:22:43.237Z,92.09
2023-11-15T06:25:11.842Z,93.35
2023-11-15T06:27:41.533Z,94.04
2023-11-15T06:30:11.182Z,93.98
2023-11-15T06:32:40.720Z,94.31
2023-11-15T06:35:10.532Z,94.54
2023-11-15T06:37:39.271Z,95.22
2023-11-15T06:40:10.808Z,95.13
2023-11-15T06:42:39.113Z,95.09
2023-11-15T06:45:10.887Z,93.44
2023-11-15T06:47:39.414Z,93.00
2023-11-15T06:50:09.503Z,92.76
2023-11-15T06:52:40.075Z,93.31
2023-11-15T06:55:12.166Z,93.45
2023-11-15T06:57:42.866Z,94.11
2023-11-15T07:00:15.009Z,94.74
2023-11-15T07:02:43.639Z,94.28
2023-11-15T07:05:12.721Z,93.93
2023-11-15T07:07:41.453Z,94.38
2023-11-15T07:10:11.313Z,94.82
2023-11-15T07:12:41.633Z,95.80
2023-11-15T07:15:15.340Z,94.51
2023-11-15T07:17:44.052Z,93.45
2023-11-15T07:20:14.685Z,92.77
2023-11-15T07:22:43.029Z,93.44
2023-11-15T07:25:14.069Z,93.45
2023-11-15T07:27:42.478Z,93.82
2023-11-15T07:30:15.455Z,92.97
2023-11-15T07:32:44.139Z,92.44
2023-11-15T07:35:12.501Z,92.66
2023-11-15T07:37:41.930Z,92.66
2023-11-15T07:40:14.362Z,92.93
2023-11-15T07:42:43.028Z,93.03
2023-11-15T07:45:13.284Z,93.61
2023-11-15T07:47:45.053Z,95.07
2023-11-15T07:50:16.377Z,96.11
2023-11-15T07:52:46.420Z,95.81
2023-11-15T07:55:16.523Z,95.55
2023-11-15T07:57:45.078Z,94.64
2023-11-15T08:00:16.951Z,94.54
2023-11-15T08:02:45.960Z,95.03
2023-11-15T08:05:14.618Z,94.74
2023-11-15T08:07:43.079Z,94.13
2023-11-15T08:10:14.495Z,94.47
2023-11-15T08:12:45.519Z,95.35
2023-11-15T08:15:15.770Z,95.40
2023-11-15T08:17:44.775Z,93.73
2023-11-15T08:20:13.823Z,93.02
2023-11-15T08:22:43.157Z,93.14
2023-11-15T08:25:12.531Z,93.10
2023-11-15T08:27:41.831Z,93.29
2023-11-15T08:30:14.136Z,93.02
2023-11-15T08:32:44.250Z,93.25
2023-11-15T08:35:15.741Z,93.55
2023-11-15T08:37:44.100Z,93.68
2023-11-15T08:40:23.196Z,94.13
2023-11-15T08:42:58.121Z,93.85
2023-11-15T08:45:26.825Z,94.29
2023-11-15T08:47:58.956Z,94.76
2023-11-15T08:50:28.630Z,94.61
2023-11-15T08:52:57.667Z,95.23
2023-11-15T08:55:26.142Z,95.44
2023-11-15T08:57:54.710Z,94.75
2023-11-15T09:00:25.588Z,94.49
2023-11-15T09:02:54.131Z,94.99
2023-11-15T09:05:25.069Z,96.06
2023-11-15T09:07:54.603Z,96.67
2023-11-15T09:10:24.384Z,96.49
2023-11-15T09:12:53.894Z,95.86
2023-11-15T09:15:25.587Z,94.51
2023-11-15T09:17:54.224Z,94.75
2023-11-15T09:20:28.850Z,95.62
2023-11-15T09:22:59.384Z,95.90
2023-11-15T09:25:28.308Z,95.92
2023-11-15T09:28:03.921Z,95.56
2023-11-15T09:30:33.043Z,96.37
2023-11-15T09:33:04.741Z,96.39
2023-11-15T09:38:06.321Z,93.66
2023-11-15T09:40:34.600Z,92.71
2023-11-15T09:43:03.746Z,92.50
2023-11-15T09:45:34.599Z,92.78
2023-11-15T09:48:05.645Z,92.54
2023-11-15T09:50:37.521Z,92.15
2023-11-15T09:53:07.481Z,92.49
2023-11-15T09:55:36.172Z,93.46
2023-11-15T09:58:05.201Z,92.99
2023-11-15T10:00:33.850Z,93.80
2023-11-15T10:03:02.882Z,93.57
2023-11-15T10:05:33.422Z,93.45
2023-11-15T10:08:16.584Z,90.09
2023-11-15T10:10:48.919Z,88.87
2023-11-15T10:13:22.293Z,88.47
2023-11-15T10:15:52.150Z,88.37
2023-11-15T10:18:33.390Z,87.89
2023-11-15T10:21:13.194Z,85.78
2023-11-15T10:23:43.503Z,85.07
2023-11-15T10:26:12.761Z,86.08
2023-11-15T10:28:41.680Z,85.52
2023-11-15T10:31:14.807Z,85.98
2023-11-15T10:33:47.213Z,84.26
2023-11-15T10:36:18.892Z,84.60
2023-11-15T10:38:51.597Z,86.20
2023-11-15T10:41:22.454Z,84.22
2023-11-15T10:43:52.498Z,84.53
2023-11-15T10:46:27.986Z,83.05
2023-11-15T10:48:58.479Z,83.36
2023-11-15T10:51:31.146Z,83.58
2023-11-15T10:54:02.410Z,83.08
2023-11-15T10:56:34.285Z,81.94
2023-11-15T10:59:05.515Z,81.09
2023-11-15T11:01:35.485Z,81.96
2023-11-15T11:04:11.792Z,82.68
2023-11-15T11:06:48.967Z,84.14
2023-11-15T11:09:24.829Z,82.96
2023-11-15T11:12:01.152Z,83.67
2023-11-15T11:14:29.674Z,83.11
2023-11-15T11:16:58.531Z,84.98
2023-11-15T11:19:28.025Z,84.78
2023-11-15T11:22:09.005Z,84.93
2023-11-15T11:24:43.889Z,84.91
2023-11-15T11:27:32.746Z,84.93
2023-11-15T11:30:22.144Z,85.48
2023-11-15T11:32:51.938Z,86.47
2023-11-15T11:35:37.589Z,85.30
2023-11-15T11:38:06.209Z,83.19
2023-11-15T11:40:40.647Z,86.21
2023-11-15T11:43:23.212Z,88.49
2023-11-15T11:45:55.227Z,88.89
2023-11-15T11:48:26.537Z,90.59
2023-11-15T11:51:01.829Z,90.36
2023-11-15T11:53:30.196Z,90.33
2023-11-15T11:55:59.871Z,88.45
2023-11-15T11:58:30.815Z,83.98
2023-11-15T12:01:04.730Z,83.79
2023-11-15T12:03:36.933Z,84.25
2023-11-15T12:06:12.378Z,82.25
2023-11-15T12:08:48.726Z,82.30
2023-11-15T12:11:23.624Z,82.71
2023-11-15T12:13:54.022Z,82.59
2023-11-15T12:16:25.068Z,82.10
2023-11-15T12:19:07.221Z,80.78
2023-11-15T12:21:38.886Z,81.67
2023-11-15T12:24:11.406Z,82.32
2023-11-15T12:26:47.676Z,82.19
2023-11-15T12:29:24.516Z,84.01
2023-11-15T12:31:55.887Z,84.72
2023-11-15T12:34:25.662Z,83.98
2023-11-15T12:36:54.760Z,83.87
2023-11-15T12:39:24.007Z,81.32
2023-11-15T12:41:59.348Z,81.64
2023-11-15T12:44:27.874Z,83.04
2023-11-15T12:46:59.350Z,84.36
2023-11-15T12:49:28.989Z,83.24
2023-11-15T12:51:57.456Z,83.05
2023-11-15T12:54:25.904Z,82.26
2023-11-15T12:57:08.842Z,82.46
2023-11-15T12:59:39.029Z,82.83
2023-11-15T13:02:08.125Z,81.82
2023-11-15T13:04:47.886Z,81.76
2023-11-15T13:07:16.787Z,83.37
2023-11-15T13:09:45.461Z,81.20
2023-11-15T13:12:26.978Z,81.31
2023-11-15T13:14:56.538Z,80.51
2023-11-15T13:17:28.248Z,80.89
2023-11-15T13:20:00.608Z,80.32
2023-11-15T13:22:31.240Z,80.35
2023-11-15T13:24:59.623Z,79.61
2023-11-15T13:27:29.440Z,79.13
2023-11-15T13:29:58.198Z,78.88
2023-11-15T13:32:26.720Z,79.23
2023-11-15T13:34:55.475Z,77.87
2023-11-15T13:37:25.547Z,77.43
2023-11-15T13:39:53.803Z,76.78
2023-11-15T13:42:22.377Z,76.23
2023-11-15T13:44:52.182Z,77.12
2023-11-15T13:47:20.530Z,76.13
2023-11-15T13:49:49.113Z,75.06
2023-11-15T13:52:17.762Z,76.20
2023-11-15T13:54:47.609Z,74.12
2023-11-15T13:57:18.818Z,73.62
2023-11-15T13:59:48.204Z,73.35
2023-11-15T14:02:18.388Z,72.38
2023-11-15T14:04:46.709Z,73.18
2023-11-15T14:07:17.172Z,73.65
2023-11-15T14:09:46.818Z,74.06
2023-11-15T14:12:15.743Z,74.00
2023-11-15T14:14:45.442Z,73.66
2023-11-15T14:17:14.100Z,74.92
2023-11-15T14:19:43.926Z,75.65
2023-11-15T14:22:13.159Z,76.57
2023-11-15T14:24:41.730Z,76.93
2023-11-15T14:27:12.832Z,77.56
2023-11-15T14:29:42.888Z,78.56
2023-11-15T14:32:17.268Z,78.77
2023-11-15T14:34:47.190Z,79.79
2023-11-15T14:37:16.218Z,79.16
2023-11-15T14:39:44.591Z,80.44
2023-11-15T14:42:13.314Z,80.86
2023-11-15T14:44:42.311Z,81.24
2023-11-15T14:47:10.953Z,81.17
2023-11-15T14:49:39.366Z,81.69
2023-11-15T14:52:12.028Z,82.03
2023-11-15T14:54:47.141Z,81.71
2023-11-15T14:57:16.512Z,80.88
2023-11-15T14:59:47.853Z,81.28
2023-11-15T15:02:18.609Z,82.26
2023-11-15T15:04:49.293Z,81.94
2023-11-15T15:07:20.310Z,81.83
2023-11-15T15:09:48.755Z,81.37
2023-11-15T15:12:18.981Z,80.82
2023-11-15T15:14:47.979Z,81.18
2023-11-15T15:17:23.678Z,81.34
2023-11-15T15:19:55.416Z,81.42
2023-11-15T15:22:26.815Z,81.65
2023-11-15T15:24:55.426Z,81.29
2023-11-15T15:27:23.959Z,81.67
2023-11-15T15:29:52.475Z,81.60
2023-11-15T15:32:20.801Z,82.84
2023-11-15T15:34:49.118Z,82.24
2023-11-15T15:37:17.427Z,81.84
2023-11-15T15:39:47.145Z,82.64
2023-11-15T15:42:15.470Z,83.78
2023-11-15T15:44:43.796Z,84.45
2023-11-15T15:47:12.128Z,84.76
2023-11-15T15:49:46.348Z,84.32
2023-11-15T15:52:15.744Z,84.43
2023-11-15T15:54:44.738Z,84.39
2023-11-15T15:57:15.112Z,84.05
2023-11-15T15:59:43.695Z,84.16
2023-11-15T16:02:12.310Z,83.66
2023-11-15T16:04:42.800Z,84.44
2023-11-15T16:07:11.771Z,84.37
2023-11-15T16:09:42.727Z,84.65
2023-11-15T16:12:11.612Z,84.73
2023-11-15T16:14:41.428Z,84.63
2023-11-15T16:17:09.848Z,84.94
2023-11-15T16:19:38.224Z,85.56
2023-11-15T16:22:06.579Z,84.71
2023-11-15T16:24:34.928Z,85.35
2023-11-15T16:27:04.584Z,85.50
2023-11-15T16:29:34.294Z,85.55
2023-11-15T16:32:04.270Z,85.85
2023-11-15T16:34:33.072Z,86.01
2023-11-15T16:37:01.808Z,85.63
2023-11-15T16:39:30.076Z,85.39
2023-11-15T16:42:00.366Z,85.32
2023-11-15T16:44:30.901Z,84.84
2023-11-15T16:47:00.593Z,86.06
2023-11-15T16:49:30.427Z,86.27
2023-11-15T16:52:00.801Z,85.63
2023-11-15T16:54:31.283Z,84.98
2023-11-15T16:57:01.331Z,85.17
2023-11-15T16:59:29.691Z,85.83
2023-11-15T17:01:58.097Z,85.35
2023-11-15T17:04:26.520Z,84.96
2023-11-15T17:06:57.455Z,85.46
2023-11-15T17:09:26.054Z,84.87
2023-11-15T17:11:54.471Z,84.63
2023-11-15T17:14:23.191Z,85.03
2023-11-15T17:16:51.625Z,84.59
2023-11-15T17:19:21.026Z,84.06
2023-11-15T17:21:49.415Z,84.86
2023-11-15T17:24:20.192Z,84.49
2023-11-15T17:26:49.033Z,84.53
2023-11-15T17:29:17.424Z,83.99
2023-11-15T17:31:46.032Z,84.25
2023-11-15T17:34:15.394Z,84.03
2023-11-15T17:36:44.804Z,83.25
2023-11-15T17:39:15.657Z,83.02
2023-11-15T17:41:45.478Z,83.25
2023-11-15T17:44:16.056Z,82.98
2023-11-15T17:46:44.707Z,82.64
2023-11-15T17:49:13.986Z,82.99
2023-11-15T17:51:45.336Z,82.76
2023-11-15T17:54:15.600Z,82.73
2023-11-15T17:56:46.449Z,82.67
2023-11-15T17:59:15.171Z,82.68
2023-11-15T18:01:44.125Z,82.58
2023-11-15T18:04:16.310Z,83.18
2023-11-15T18:06:45.309Z,83.54
2023-11-15T18:09:13.882Z,82.77
2023-11-15T18:11:42.586Z,82.55
2023-11-15T18:14:12.633Z,82.13
2023-11-15T18:16:40.990Z,82.17
2023-11-15T18:19:10.109Z,82.38
2023-11-15T18:21:41.540Z,81.31
2023-11-15T18:24:12.613Z,81.18
2023-11-15T18:26:43.229Z,81.18
2023-11-15T18:29:13.051Z,80.68
2023-11-15T18:31:41.639Z,80.92
2023-11-15T18:34:10.763Z,81.17
2023-11-15T18:36:42.569Z,80.88
2023-11-15T18:39:15.799Z,80.25
2023-11-15T18:41:45.639Z,79.89
2023-11-15T18:44:17.496Z,80.24
2023-11-15T18:46:53.509Z,80.73
2023-11-15T18:49:24.178Z,80.75
2023-11-15T18:51:53.929Z,79.95
2023-11-15T18:54:23.287Z,79.95
2023-11-15T18:56:53.301Z,79.47
2023-11-15T18:59:23.475Z,79.27
2023-11-15T19:01:51.848Z,79.14
2023-11-15T19:04:20.535Z,79.21
2023-11-15T19:06:50.804Z,80.19
2023-11-15T19:09:23.323Z,81.51
2023-11-15T19:11:56.574Z,83.32
2023-11-15T19:14:29.775Z,84.69
2023-11-15T19:17:01.205Z,85.55
2023-11-15T19:19:29.907Z,86.03
2023-11-15T19:21:58.393Z,86.71
2023-11-15T19:24:26.945Z,86.75
2023-11-15T19:26:55.490Z,88.03
2023-11-15T19:29:23.985Z,87.53
2023-11-15T19:31:53.976Z,87.66
2023-11-15T19:34:24.385Z,87.65
2023-11-15T19:36:53.783Z,87.63
2023-11-15T19:39:22.226Z,88.34
2023-11-15T19:41:51.820Z,87.87
2023-11-15T19:44:20.197Z,87.41
2023-11-15T19:46:48.864Z,87.38
2023-11-15T19:49:20.766Z,86.56
2023-11-15T19:51:53.008Z,86.53
2023-11-15T19:54:22.086Z,86.85
2023-11-15T19:56:51.174Z,86.66
2023-11-15T19:59:19.618Z,86.15
2023-11-15T20:01:48.298Z,84.90
2023-11-15T20:04:20.570Z,84.42
2023-11-15T20:06:49.428Z,83.79
2023-11-15T20:09:17.776Z,83.15
2023-11-15T20:11:47.927Z,82.86
2023-11-15T20:14:16.451Z,82.65
2023-11-15T20:16:44.828Z,82.26
2023-11-15T20:19:14.148Z,82.49
2023-11-15T20:21:43.920Z,82.64
2023-11-15T20:24:12.441Z,82.55
2023-11-15T20:26:42.181Z,81.76
2023-11-15T20:29:11.683Z,81.95
2023-11-15T20:31:40.222Z,82.31
2023-11-15T20:34:09.100Z,81.92
2023-11-15T20:36:38.691Z,81.46
2023-11-15T20:39:21.609Z,81.29
2023-11-15T20:41:53.674Z,80.98
2023-11-15T20:44:22.343Z,81.19
2023-11-15T20:46:50.905Z,81.39
2023-11-15T20:49:19.412Z,81.04
2023-11-15T20:51:49.099Z,80.84
2023-11-15T20:54:22.106Z,80.41
2023-11-15T20:56:50.570Z,80.04
2023-11-15T20:59:19.322Z,80.26
2023-11-15T21:01:48.352Z,80.44
2023-11-15T21:04:21.153Z,80.03
2023-11-15T21:06:52.017Z,79.74
2023-11-15T21:09:24.827Z,79.79
2023-11-15T21:11:54.821Z,79.98
2023-11-15T21:14:23.338Z,79.85
2023-11-15T21:16:51.842Z,79.71
2023-11-15T21:19:20.477Z,79.25
2023-11-15T21:21:47.837Z,79.60
2023-11-15T21:24:16.513Z,80.17
2023-11-15T21:26:46.809Z,80.32
2023-11-15T21:29:15.235Z,80.68
2023-11-15T21:31:43.961Z,80.24
2023-11-15T21:34:12.491Z,79.84
2023-11-15T21:36:41.288Z,79.37
2023-11-15T21:39:10.742Z,79.61
2023-11-15T21:41:39.442Z,79.54
2023-11-15T21:44:09.536Z,79.78
2023-11-15T21:46:38.290Z,80.34
2023-11-15T21:49:06.920Z,79.94
2023-11-15T21:51:35.233Z,80.08
2023-11-15T21:54:03.832Z,79.84
2023-11-15T21:56:33.115Z,79.15
2023-11-15T21:59:01.490Z,79.88
2023-11-15T22:01:31.331Z,80.01
2023-11-15T22:03:59.716Z,80.63
2023-11-15T22:06:28.189Z,79.87
2023-11-15T22:08:56.563Z,79.85
2023-11-15T22:11:25.000Z,80.65
2023-11-15T22:13:53.394Z,80.94
2023-11-15T22:16:21.973Z,80.57
2023-11-15T22:18:51.724Z,80.57
2023-11-15T22:21:20.149Z,80.28
2023-11-15T22:23:50.989Z,80.13
2023-11-15T22:26:19.305Z,80.22
2023-11-15T22:28:47.810Z,80.33
2023-11-15T22:31:16.238Z,80.87
2023-11-15T22:33:44.639Z,80.90
2023-11-15T22:36:16.288Z,79.84
2023-11-15T22:38:45.456Z,79.79
2023-11-15T22:41:13.870Z,79.96
2023-11-15T22:43:42.438Z,79.79
2023-11-15T22:46:10.894Z,80.22
2023-11-15T22:48:39.321Z,80.62
2023-11-15T22:51:08.788Z,81.64
2023-11-15T22:53:39.855Z,81.62
2023-11-15T22:56:10.155Z,81.27
2023-11-15T22:58:38.532Z,81.41
2023-11-15T23:01:07.212Z,81.18
2023-11-15T23:03:35.997Z,81.28
2023-11-15T23:06:06.968Z,81.46
2023-11-15T23:08:35.319Z,81.21
2023-11-15T23:11:05.532Z,80.55
2023-11-15T23:13:33.946Z,81.15
2023-11-15T23:16:02.263Z,81.24
2023-11-15T23:18:30.778Z,81.42
2023-11-15T23:20:59.893Z,81.34
2023-11-15T23:23:28.329Z,80.73
2023-11-15T23:25:56.917Z,81.16
2023-11-15T23:28:27.997Z,80.76
2023-11-15T23:30:56.979Z,80.54
2023-11-15T23:33:25.604Z,80.54
2023-11-15T23:35:54.436Z,80.49
2023-11-15T23:38:25.885Z,80.63
2023-11-15T23:40:54.956Z,80.83
2023-11-15T23:43:23.277Z,80.43
2023-11-15T23:45:53.371Z,80.45
2023-11-15T23:48:22.167Z,80.53
2023-11-15T23:50:50.863Z,80.41
2023-11-15T23:53:19.274Z,80.49
2023-11-15T23:55:47.724Z,79.66
2023-11-15T23:58:17.278Z,79.90
